Wetterdaten: Woche 13.08.18 - 19.08.18 (KW33)
Datum Zeit Temp. A. Feuchte A. Luftdruck Regen Wind Richtung Taupunkt Windchill Windben
13.08.2018 00:00 20,9 C 67 % 1011,6 hPa 0,0 l/m 0,0 km/h N 14,5 C 20,9 C 0,8 km/h
13.08.2018 01:00 18,6 C 74 % 1011,3 hPa 0,0 l/m 0,0 km/h N 13,7 C 18,6 C 0,0 km/h
13.08.2018 02:00 17,0 C 77 % 1010,9 hPa 0,0 l/m 0,0 km/h N 13,0 C 17,0 C 0,0 km/h
13.08.2018 03:00 16,1 C 79 % 1010,8 hPa 0,0 l/m 0,0 km/h N 12,5 C 16,1 C 0,0 km/h
13.08.2018 04:00 15,4 C 80 % 1010,6 hPa 0,0 l/m 0,0 km/h N 11,9 C 15,4 C 0,4 km/h
13.08.2018 05:00 14,9 C 80 % 1010,7 hPa 0,0 l/m 0,0 km/h N 11,5 C 14,9 C 0,0 km/h
13.08.2018 06:00 14,9 C 80 % 1010,7 hPa 0,0 l/m 0,0 km/h N 11,5 C 14,9 C 0,0 km/h
13.08.2018 07:00 15,9 C 80 % 1010,8 hPa 0,0 l/m 0,0 km/h N 12,5 C 15,9 C 0,0 km/h
13.08.2018 08:00 18,0 C 80 % 1010,9 hPa 0,0 l/m 0,0 km/h N 14,4 C 18,0 C 0,8 km/h
13.08.2018 09:00 22,3 C 72 % 1010,6 hPa 0,0 l/m 0,0 km/h N 17,0 C 22,3 C 1,6 km/h
13.08.2018 10:00 26,4 C 59 % 1010,3 hPa 0,0 l/m 0,4 km/h N 17,7 C 26,4 C 4,8 km/h
13.08.2018 11:00 28,9 C 53 % 1010,2 hPa 0,0 l/m 0,3 km/h N 18,3 C 28,9 C 5,6 km/h
13.08.2018 12:00 31,3 C 48 % 1009,7 hPa 0,0 l/m 0,3 km/h N 18,9 C 31,3 C 5,6 km/h
13.08.2018 13:00 32,6 C 45 % 1009,0 hPa 0,0 l/m 0,7 km/h N 19,1 C 32,6 C 6,8 km/h
13.08.2018 14:00 32,8 C 44 % 1008,2 hPa 0,0 l/m 1,4 km/h N 18,8 C 32,8 C 7,6 km/h
13.08.2018 15:00 33,2 C 40 % 1007,7 hPa 0,0 l/m 2,0 km/h N 17,7 C 33,2 C 9,3 km/h
13.08.2018 16:00 32,1 C 41 % 1007,0 hPa 0,0 l/m 3,1 km/h N 17,1 C 32,1 C 10,1 km/h
13.08.2018 17:00 31,6 C 42 % 1006,3 hPa 0,0 l/m 3,0 km/h N 16,9 C 31,6 C 10,9 km/h
13.08.2018 18:00 30,9 C 44 % 1005,8 hPa 0,0 l/m 2,5 km/h N 17,2 C 30,9 C 9,6 km/h
13.08.2018 19:00 30,0 C 44 % 1005,7 hPa 0,0 l/m 1,1 km/h N 16,5 C 30,0 C 6,4 km/h
13.08.2018 20:00 28,4 C 53 % 1005,9 hPa 0,0 l/m 0,0 km/h N 17,8 C 28,4 C 0,8 km/h
13.08.2018 21:00 25,5 C 62 % 1005,8 hPa 0,0 l/m 0,0 km/h N 17,6 C 25,5 C 0,8 km/h
13.08.2018 22:00 23,5 C 69 % 1006,2 hPa 0,0 l/m 0,3 km/h N 17,4 C 23,5 C 2,4 km/h
13.08.2018 23:00 24,1 C 62 % 1007,0 hPa 0,0 l/m 3,6 km/h N 16,3 C 24,1 C 17,7 km/h
14.08.2018 00:00 23,2 C 64 % 1007,4 hPa 0,0 l/m 5,3 km/h N 16,0 C 23,2 C 22,5 km/h
14.08.2018 01:00 22,2 C 69 % 1008,0 hPa 0,0 l/m 4,0 km/h N 16,1 C 22,2 C 23,3 km/h
14.08.2018 02:00 21,5 C 71 % 1008,1 hPa 0,0 l/m 2,9 km/h N 16,0 C 21,5 C 20,1 km/h
14.08.2018 03:00 21,1 C 73 % 1008,5 hPa 0,0 l/m 2,5 km/h N 16,0 C 21,1 C 13,3 km/h
14.08.2018 04:00 21,1 C 72 % 1008,8 hPa 0,0 l/m 8,7 km/h N 15,8 C 20,2 C 21,7 km/h
14.08.2018 05:00 21,1 C 72 % 1009,3 hPa 0,0 l/m 8,1 km/h N 15,9 C 20,5 C 22,5 km/h
14.08.2018 06:00 20,8 C 73 % 1009,7 hPa 0,0 l/m 4,1 km/h N 15,8 C 20,8 C 12,5 km/h
14.08.2018 07:00 21,1 C 72 % 1010,2 hPa 0,0 l/m 5,8 km/h N 15,9 C 21,1 C 16,5 km/h
14.08.2018 08:00 22,4 C 68 % 1010,4 hPa 0,0 l/m 9,1 km/h N 16,2 C 21,6 C 21,7 km/h
14.08.2018 09:00 22,8 C 68 % 1010,8 hPa 0,0 l/m 9,8 km/h N 16,6 C 21,8 C 28,1 km/h
14.08.2018 10:00 22,5 C 70 % 1011,4 hPa 0,0 l/m 7,0 km/h N 16,6 C 22,2 C 20,9 km/h
14.08.2018 11:00 21,5 C 75 % 1011,6 hPa 0,0 l/m 5,6 km/h N 16,8 C 21,5 C 14,9 km/h
14.08.2018 12:00 21,4 C 77 % 1011,7 hPa 0,3 l/m 2,6 km/h N 17,2 C 21,4 C 12,9 km/h
14.08.2018 13:00 21,9 C 77 % 1011,9 hPa 0,3 l/m 0,3 km/h N 17,6 C 21,9 C 4,8 km/h
14.08.2018 14:00 22,3 C 78 % 1011,8 hPa 0,3 l/m 0,2 km/h N 18,2 C 22,3 C 3,6 km/h
14.08.2018 15:00 22,7 C 78 % 1011,5 hPa 0,0 l/m 0,0 km/h N 18,7 C 22,7 C 2,4 km/h
14.08.2018 16:00 23,4 C 71 % 1011,2 hPa 0,3 l/m 3,9 km/h N 17,7 C 23,4 C 15,3 km/h
14.08.2018 17:00 24,3 C 65 % 1010,8 hPa 0,0 l/m 6,9 km/h N 17,3 C 24,1 C 22,5 km/h
14.08.2018 18:00 24,6 C 63 % 1010,9 hPa 0,0 l/m 4,7 km/h N 17,1 C 24,6 C 16,1 km/h
14.08.2018 19:00 24,5 C 60 % 1011,2 hPa 0,0 l/m 5,9 km/h N 16,3 C 24,5 C 18,5 km/h
14.08.2018 20:00 23,7 C 61 % 1011,8 hPa 0,0 l/m 5,6 km/h N 15,7 C 23,7 C 20,5 km/h
14.08.2018 21:00 22,8 C 62 % 1012,3 hPa 0,0 l/m 8,1 km/h N 15,2 C 22,2 C 27,8 km/h
14.08.2018 22:00 22,5 C 62 % 1012,7 hPa 0,0 l/m 10,3 km/h N 14,9 C 21,4 C 26,1 km/h
14.08.2018 23:00 22,4 C 62 % 1013,0 hPa 0,0 l/m 12,4 km/h N 14,7 C 20,7 C 30,6 km/h
15.08.2018 00:00 22,0 C 62 % 1013,4 hPa 0,0 l/m 10,1 km/h N 14,3 C 20,8 C 27,8 km/h
15.08.2018 01:00 21,8 C 61 % 1013,9 hPa 0,0 l/m 11,0 km/h N 13,9 C 20,3 C 27,3 km/h
15.08.2018 02:00 21,4 C 62 % 1014,3 hPa 0,0 l/m 9,4 km/h N 13,7 C 20,4 C 22,5 km/h
15.08.2018 03:00 21,0 C 63 % 1014,5 hPa 0,0 l/m 7,2 km/h N 13,5 C 20,6 C 21,7 km/h
15.08.2018 04:00 20,6 C 63 % 1014,9 hPa 0,0 l/m 7,6 km/h N 13,4 C 20,1 C 19,3 km/h
15.08.2018 05:00 19,9 C 67 % 1015,2 hPa 0,0 l/m 4,7 km/h N 13,5 C 19,8 C 14,9 km/h
15.08.2018 06:00 20,1 C 67 % 1015,5 hPa 0,0 l/m 6,3 km/h N 13,7 C 20,0 C 20,1 km/h
15.08.2018 07:00 20,3 C 68 % 1016,1 hPa 0,0 l/m 6,2 km/h N 14,1 C 20,1 C 18,9 km/h
15.08.2018 08:00 20,7 C 68 % 1016,6 hPa 0,0 l/m 5,6 km/h N 14,5 C 20,7 C 20,5 km/h
15.08.2018 09:00 22,0 C 64 % 1016,8 hPa 0,0 l/m 7,8 km/h N 14,8 C 21,6 C 20,9 km/h
15.08.2018 10:00 23,7 C 57 % 1017,0 hPa 0,0 l/m 6,8 km/h N 14,6 C 23,5 C 22,1 km/h
15.08.2018 11:00 24,1 C 55 % 1017,0 hPa 0,0 l/m 8,4 km/h N 14,5 C 23,5 C 24,5 km/h
15.08.2018 12:00 24,6 C 55 % 1016,9 hPa 0,0 l/m 6,6 km/h N 15,0 C 24,4 C 22,9 km/h
15.08.2018 13:00 24,1 C 56 % 1017,0 hPa 0,0 l/m 5,1 km/h N 14,7 C 24,1 C 18,1 km/h
15.08.2018 14:00 25,7 C 52 % 1016,6 hPa 0,0 l/m 4,5 km/h N 14,9 C 25,7 C 20,5 km/h
15.08.2018 15:00 25,5 C 51 % 1016,4 hPa 0,0 l/m 3,5 km/h N 14,5 C 25,5 C 16,9 km/h
15.08.2018 16:00 25,9 C 46 % 1016,1 hPa 0,0 l/m 4,7 km/h N 13,5 C 25,9 C 16,5 km/h
15.08.2018 17:00 26,6 C 43 % 1015,8 hPa 0,0 l/m 5,4 km/h N 13,1 C 26,6 C 21,4 km/h
15.08.2018 18:00 26,3 C 43 % 1015,6 hPa 0,0 l/m 2,9 km/h N 12,8 C 26,3 C 14,1 km/h
15.08.2018 19:00 25,8 C 45 % 1015,7 hPa 0,0 l/m 1,8 km/h N 12,8 C 25,8 C 9,3 km/h
15.08.2018 20:00 24,3 C 50 % 1016,2 hPa 0,0 l/m 0,1 km/h N 13,2 C 24,3 C 1,6 km/h
15.08.2018 21:00 22,9 C 54 % 1016,9 hPa 0,0 l/m 0,5 km/h N 13,2 C 22,9 C 4,0 km/h
15.08.2018 22:00 21,2 C 59 % 1017,5 hPa 0,0 l/m 0,2 km/h N 12,9 C 21,2 C 1,6 km/h
15.08.2018 23:00 20,0 C 61 % 1017,7 hPa 0,0 l/m 0,1 km/h N 12,4 C 20,0 C 2,8 km/h
16.08.2018 00:00 20,1 C 61 % 1017,9 hPa 0,0 l/m 0,1 km/h N 12,4 C 20,1 C 3,6 km/h
16.08.2018 01:00 19,7 C 63 % 1017,8 hPa 0,0 l/m 0,0 km/h N 12,3 C 19,7 C 1,2 km/h
16.08.2018 02:00 18,0 C 70 % 1017,9 hPa 0,0 l/m 0,0 km/h N 12,3 C 18,0 C 0,0 km/h
16.08.2018 03:00 16,5 C 74 % 1017,9 hPa 0,0 l/m 0,0 km/h N 11,8 C 16,5 C 0,0 km/h
16.08.2018 04:00 15,6 C 76 % 1017,8 hPa 0,0 l/m 0,0 km/h N 11,4 C 15,6 C 0,0 km/h
16.08.2018 05:00 15,0 C 78 % 1017,9 hPa 0,0 l/m 0,0 km/h N 11,3 C 15,0 C 0,4 km/h
16.08.2018 06:00 15,0 C 79 % 1018,2 hPa 0,0 l/m 0,0 km/h N 11,4 C 15,0 C 1,6 km/h
16.08.2018 07:00 16,0 C 79 % 1018,4 hPa 0,0 l/m 0,0 km/h N 12,3 C 16,0 C 0,4 km/h
16.08.2018 08:00 18,6 C 75 % 1018,2 hPa 0,0 l/m 0,9 km/h N 14,1 C 18,6 C 4,0 km/h
16.08.2018 09:00 22,5 C 63 % 1018,1 hPa 0,0 l/m 2,0 km/h N 15,0 C 22,5 C 7,6 km/h
16.08.2018 10:00 24,7 C 54 % 1018,0 hPa 0,0 l/m 2,1 km/h N 14,8 C 24,7 C 9,3 km/h
16.08.2018 11:00 25,9 C 48 % 1017,6 hPa 0,0 l/m 3,1 km/h N 14,1 C 25,9 C 13,3 km/h
16.08.2018 12:00 26,6 C 46 % 1017,1 hPa 0,0 l/m 2,7 km/h N 14,0 C 26,6 C 15,3 km/h
16.08.2018 13:00 27,1 C 45 % 1016,6 hPa 0,0 l/m 2,6 km/h N 14,0 C 27,1 C 11,3 km/h
16.08.2018 14:00 26,9 C 45 % 1016,1 hPa 0,0 l/m 2,4 km/h N 13,8 C 26,9 C 13,3 km/h
16.08.2018 15:00 27,0 C 43 % 1015,6 hPa 0,0 l/m 1,2 km/h N 13,2 C 27,0 C 8,0 km/h
16.08.2018 16:00 27,2 C 42 % 1015,2 hPa 0,0 l/m 1,8 km/h N 13,0 C 27,2 C 10,9 km/h
16.08.2018 17:00 27,1 C 42 % 1014,8 hPa 0,0 l/m 0,9 km/h N 13,0 C 27,1 C 6,8 km/h
16.08.2018 18:00 26,4 C 45 % 1014,5 hPa 0,0 l/m 0,4 km/h N 13,3 C 26,4 C 4,4 km/h
16.08.2018 19:00 26,0 C 46 % 1014,2 hPa 0,0 l/m 0,0 km/h N 13,3 C 26,0 C 2,0 km/h
16.08.2018 20:00 23,7 C 51 % 1014,3 hPa 0,0 l/m 0,0 km/h N 13,0 C 23,7 C 0,0 km/h
16.08.2018 21:00 21,0 C 59 % 1014,6 hPa 0,0 l/m 0,0 km/h N 12,7 C 21,0 C 0,8 km/h
16.08.2018 22:00 19,6 C 64 % 1014,6 hPa 0,0 l/m 0,1 km/h N 12,5 C 19,6 C 2,4 km/h
16.08.2018 23:00 18,8 C 66 % 1014,7 hPa 0,0 l/m 0,0 km/h N 12,3 C 18,8 C 1,2 km/h
17.08.2018 00:00 17,8 C 69 % 1014,7 hPa 0,0 l/m 0,0 km/h N 12,1 C 17,8 C 2,0 km/h
17.08.2018 01:00 17,0 C 71 % 1014,7 hPa 0,0 l/m 0,0 km/h N 11,8 C 17,0 C 0,0 km/h
17.08.2018 02:00 16,2 C 74 % 1014,4 hPa 0,0 l/m 0,0 km/h N 11,5 C 16,2 C 0,4 km/h
17.08.2018 03:00 15,7 C 75 % 1014,3 hPa 0,0 l/m 0,0 km/h N 11,2 C 15,7 C 0,4 km/h
17.08.2018 04:00 15,5 C 75 % 1014,2 hPa 0,0 l/m 0,4 km/h N 11,1 C 15,5 C 4,4 km/h
17.08.2018 05:00 14,9 C 76 % 1014,2 hPa 0,0 l/m 0,0 km/h N 10,8 C 14,9 C 0,8 km/h
17.08.2018 06:00 14,4 C 77 % 1014,4 hPa 0,0 l/m 0,0 km/h N 10,5 C 14,4 C 0,4 km/h
17.08.2018 07:00 14,8 C 79 % 1014,6 hPa 0,0 l/m 0,0 km/h N 11,2 C 14,8 C 0,4 km/h
17.08.2018 08:00 17,0 C 77 % 1014,8 hPa 0,0 l/m 0,1 km/h N 13,0 C 17,0 C 0,8 km/h
17.08.2018 09:00 21,3 C 67 % 1014,7 hPa 0,0 l/m 0,0 km/h N 14,8 C 21,3 C 2,4 km/h
17.08.2018 10:00 26,1 C 52 % 1014,6 hPa 0,0 l/m 0,3 km/h N 15,3 C 26,1 C 6,0 km/h
17.08.2018 11:00 29,0 C 47 % 1014,2 hPa 0,0 l/m 0,4 km/h N 16,6 C 29,0 C 5,6 km/h
17.08.2018 12:00 30,7 C 41 % 1013,7 hPa 0,0 l/m 1,7 km/h N 15,8 C 30,7 C 8,4 km/h
17.08.2018 13:00 31,4 C 40 % 1013,5 hPa 0,0 l/m 1,7 km/h N 16,0 C 31,4 C 11,3 km/h
17.08.2018 14:00 31,2 C 39 % 1013,3 hPa 0,0 l/m 0,9 km/h N 15,5 C 31,2 C 6,4 km/h
17.08.2018 15:00 30,7 C 39 % 1013,0 hPa 0,0 l/m 2,0 km/h N 15,2 C 30,7 C 8,9 km/h
17.08.2018 16:00 29,8 C 40 % 1012,7 hPa 0,0 l/m 0,6 km/h N 14,6 C 29,8 C 8,1 km/h
17.08.2018 17:00 29,4 C 40 % 1012,7 hPa 0,0 l/m 0,2 km/h N 14,3 C 29,4 C 4,4 km/h
17.08.2018 18:00 29,0 C 41 % 1012,6 hPa 0,0 l/m 0,0 km/h N 14,2 C 29,0 C 2,0 km/h
17.08.2018 19:00 28,1 C 44 % 1012,7 hPa 0,0 l/m 0,0 km/h N 14,5 C 28,1 C 1,2 km/h
17.08.2018 20:00 25,8 C 50 % 1013,3 hPa 0,0 l/m 0,0 km/h N 14,6 C 25,8 C 0,0 km/h
17.08.2018 21:00 22,8 C 60 % 1013,6 hPa 0,0 l/m 0,0 km/h N 14,6 C 22,8 C 0,0 km/h
17.08.2018 22:00 20,6 C 68 % 1014,0 hPa 0,0 l/m 0,0 km/h N 14,4 C 20,6 C 0,0 km/h
17.08.2018 23:00 19,7 C 71 % 1014,1 hPa 0,0 l/m 0,0 km/h N 14,3 C 19,7 C 1,2 km/h
18.08.2018 00:00 19,2 C 73 % 1014,3 hPa 0,0 l/m 0,0 km/h N 14,1 C 19,2 C 1,2 km/h
18.08.2018 01:00 18,6 C 74 % 1014,3 hPa 0,0 l/m 0,0 km/h N 13,8 C 18,6 C 0,0 km/h
18.08.2018 02:00 18,0 C 76 % 1014,8 hPa 0,0 l/m 0,0 km/h N 13,7 C 18,0 C 1,2 km/h
18.08.2018 03:00 17,2 C 78 % 1015,2 hPa 0,0 l/m 0,2 km/h N 13,3 C 17,2 C 1,6 km/h
18.08.2018 04:00 16,5 C 78 % 1015,4 hPa 0,0 l/m 0,0 km/h N 12,6 C 16,5 C 0,0 km/h
18.08.2018 05:00 16,0 C 79 % 1015,8 hPa 0,0 l/m 0,0 km/h N 12,3 C 16,0 C 0,4 km/h
18.08.2018 06:00 16,0 C 79 % 1016,3 hPa 0,0 l/m 0,0 km/h N 12,4 C 16,0 C 0,0 km/h
18.08.2018 07:00 16,8 C 79 % 1016,9 hPa 0,0 l/m 0,0 km/h N 13,1 C 16,8 C 0,0 km/h
18.08.2018 08:00 18,9 C 77 % 1017,3 hPa 0,0 l/m 0,0 km/h N 14,8 C 18,9 C 0,4 km/h
18.08.2018 09:00 22,9 C 67 % 1017,4 hPa 0,0 l/m 0,0 km/h N 16,3 C 22,9 C 0,8 km/h
18.08.2018 10:00 27,0 C 54 % 1017,4 hPa 0,0 l/m 3,9 km/h N 16,7 C 27,0 C 12,5 km/h
18.08.2018 11:00 28,7 C 49 % 1017,2 hPa 0,0 l/m 2,8 km/h N 16,8 C 28,7 C 10,9 km/h
18.08.2018 12:00 29,9 C 44 % 1017,1 hPa 0,0 l/m 3,1 km/h N 16,3 C 29,9 C 10,1 km/h
18.08.2018 13:00 30,5 C 40 % 1017,0 hPa 0,0 l/m 1,5 km/h N 15,2 C 30,5 C 9,7 km/h
18.08.2018 14:00 30,8 C 38 % 1016,8 hPa 0,0 l/m 2,3 km/h N 14,8 C 30,8 C 10,1 km/h
18.08.2018 15:00 30,4 C 39 % 1016,3 hPa 0,0 l/m 1,5 km/h N 14,7 C 30,4 C 7,3 km/h
18.08.2018 16:00 30,3 C 38 % 1016,1 hPa 0,0 l/m 1,3 km/h N 14,3 C 30,3 C 8,0 km/h
18.08.2018 17:00 30,4 C 37 % 1015,8 hPa 0,0 l/m 0,6 km/h N 14,0 C 30,4 C 7,2 km/h
18.08.2018 18:00 30,0 C 39 % 1015,6 hPa 0,0 l/m 0,1 km/h N 14,3 C 30,0 C 3,2 km/h
18.08.2018 19:00 28,8 C 41 % 1015,9 hPa 0,0 l/m 0,0 km/h N 14,3 C 28,8 C 0,4 km/h
18.08.2018 20:00 26,0 C 49 % 1016,7 hPa 0,0 l/m 0,0 km/h N 14,5 C 26,0 C 0,4 km/h
18.08.2018 21:00 23,2 C 55 % 1017,2 hPa 0,0 l/m 0,0 km/h N 13,7 C 23,2 C 1,2 km/h
18.08.2018 22:00 21,7 C 59 % 1017,4 hPa 0,0 l/m 0,0 km/h N 13,3 C 21,7 C 0,8 km/h
18.08.2018 23:00 20,9 C 61 % 1017,7 hPa 0,0 l/m 0,0 km/h N 13,1 C 20,9 C 0,0 km/h
19.08.2018 00:00 20,6 C 63 % 1017,9 hPa 0,0 l/m 0,1 km/h N 13,3 C 20,6 C 1,2 km/h
19.08.2018 01:00 19,4 C 66 % 1017,9 hPa 0,0 l/m 0,0 km/h N 12,9 C 19,4 C 0,4 km/h
19.08.2018 02:00 18,8 C 69 % 1017,9 hPa 0,0 l/m 0,0 km/h N 12,9 C 18,8 C 1,2 km/h
19.08.2018 03:00 18,3 C 70 % 1018,0 hPa 0,0 l/m 0,0 km/h N 12,6 C 18,3 C 0,0 km/h
19.08.2018 04:00 17,8 C 72 % 1018,3 hPa 0,0 l/m 0,0 km/h N 12,5 C 17,8 C 0,0 km/h
19.08.2018 05:00 16,8 C 75 % 1018,6 hPa 0,0 l/m 0,0 km/h N 12,3 C 16,8 C 0,8 km/h
19.08.2018 06:00 16,5 C 76 % 1018,9 hPa 0,0 l/m 0,0 km/h N 12,1 C 16,5 C 0,4 km/h
19.08.2018 07:00 17,4 C 76 % 1019,1 hPa 0,0 l/m 0,0 km/h N 13,1 C 17,4 C 1,6 km/h
19.08.2018 08:00 19,8 C 70 % 1019,3 hPa 0,0 l/m 0,0 km/h N 14,2 C 19,8 C 1,2 km/h
19.08.2018 09:00 23,8 C 59 % 1019,3 hPa 0,0 l/m 0,0 km/h N 15,2 C 23,8 C 0,8 km/h
19.08.2018 10:00 28,6 C 47 % 1019,1 hPa 0,0 l/m 0,2 km/h N 16,1 C 28,6 C 4,8 km/h
19.08.2018 11:00 30,3 C 43 % 1018,7 hPa 0,0 l/m 0,4 km/h N 16,4 C 30,3 C 7,6 km/h
19.08.2018 12:00 32,0 C 41 % 1018,3 hPa 0,0 l/m 0,3 km/h N 16,8 C 32,0 C 6,0 km/h
19.08.2018 13:00 32,8 C 39 % 1017,9 hPa 0,0 l/m 0,8 km/h N 16,8 C 32,8 C 8,4 km/h
19.08.2018 14:00 32,5 C 38 % 1017,3 hPa 0,0 l/m 1,7 km/h N 16,2 C 32,5 C 10,9 km/h
19.08.2018 15:00 32,4 C 36 % 1016,6 hPa 0,0 l/m 0,5 km/h N 15,3 C 32,4 C 6,8 km/h
19.08.2018 16:00 31,8 C 34 % 1016,2 hPa 0,0 l/m 0,6 km/h N 14,1 C 31,8 C 6,4 km/h
19.08.2018 17:00 31,7 C 34 % 1015,8 hPa 0,0 l/m 0,7 km/h N 13,6 C 31,7 C 6,0 km/h
19.08.2018 18:00 31,4 C 36 % 1015,5 hPa 0,0 l/m 0,1 km/h N 14,3 C 31,4 C 4,0 km/h
19.08.2018 19:00 30,3 C 38 % 1015,3 hPa 0,0 l/m 0,0 km/h N 14,4 C 30,3 C 2,0 km/h
19.08.2018 20:00 27,6 C 45 % 1015,5 hPa 0,0 l/m 0,0 km/h N 14,6 C 27,6 C 0,0 km/h
19.08.2018 21:00 24,3 C 53 % 1015,6 hPa 0,0 l/m 0,0 km/h N 14,0 C 24,3 C 0,0 km/h
19.08.2018 22:00 22,5 C 58 % 1015,5 hPa 0,0 l/m 0,0 km/h N 13,7 C 22,5 C 0,0 km/h
19.08.2018 23:00 21,6 C 61 % 1015,8 hPa 0,0 l/m 0,0 km/h N 13,8 C 21,6 C 1,2 km/h
Min-Datum _ 17.08.18 19.08.18 13.08.18 - 13.08.18 - 17.08.18 17.08.18 13.08.18
_ Min-Zeit 06:45 17:15 19:00 - 00:00 - 06:30 06:45 00:30
Minimum _ 14,3 C 33 % 1005,5 hPa - 0,0 km/h - 10,4 C 14,3 C 0,0 km/h
Max-Datum _ 13.08.18 13.08.18 19.08.18 14.08.18 14.08.18 - 13.08.18 13.08.18 14.08.18
_ Max-Zeit 15:00 03:45 08:30 12:30 23:00 - 13:00 15:00 23:00
Maximum _ 33,6 C 80 % 1019,4 hPa 0,3 l/m 13,3 km/h
N
- 19,4 C 33,5 C 37,0 km/h
N
Durchschnitt _ 23,3 C 60 % 1014,2 hPa #1,0 l/m 2,0 km/h N 14,5 C 23,2 C 7,8 km/h